Time;durP1;ratioP1;P1;durP2;ratioP2;P2;SDS_P1;SDS_P2;PMS_P1;PMS_P2;Temp;Humidity;BMP_temperature;BMP_pressure;BME280_temperature;BME280_humidity;BME280_pressure;Samples;Min_cycle;Max_cycle;Signal;HPM_P1;HPM_P2
2022/09/29 00:00:51;;;;;;;0.00;0.00;;;8.00;99.90;;;;;;5064093;28;20705;-69
2022/09/29 00:03:20;;;;;;;0.00;0.00;;;8.00;99.90;;;;;;5055788;28;20222;-68
2022/09/29 00:05:49;;;;;;;0.00;0.00;;;8.00;99.90;;;;;;5055340;28;20304;-70
2022/09/29 00:08:20;;;;;;;0.00;0.00;;;7.90;99.90;;;;;;5055547;28;20943;-69
2022/09/29 00:10:48;;;;;;;0.00;0.00;;;7.90;99.90;;;;;;5055920;28;20225;-69
2022/09/29 00:13:17;;;;;;;0.00;0.00;;;7.90;99.90;;;;;;5055572;28;20598;-72
2022/09/29 00:15:45;;;;;;;0.00;0.00;;;7.90;99.90;;;;;;5056962;28;20267;-78
2022/09/29 00:18:13;;;;;;;0.00;0.00;;;7.90;99.90;;;;;;5056387;28;20202;-73
2022/09/29 00:20:41;;;;;;;0.00;0.00;;;7.90;99.90;;;;;;5055260;28;20233;-70
2022/09/29 00:23:09;;;;;;;0.00;0.00;;;7.90;99.90;;;;;;5055385;28;20726;-69
2022/09/29 00:25:38;;;;;;;0.00;0.00;;;7.90;99.90;;;;;;5055217;28;20255;-69
2022/09/29 00:28:06;;;;;;;0.00;0.00;;;7.80;99.90;;;;;;5065619;28;20209;-69
2022/09/29 00:30:34;;;;;;;0.00;0.00;;;7.80;99.90;;;;;;5074946;28;20239;-69
2022/09/29 00:33:01;;;;;;;0.00;0.00;;;7.80;99.90;;;;;;5075296;28;20212;-68
2022/09/29 00:35:29;;;;;;;0.00;0.00;;;7.80;99.90;;;;;;5074998;28;20247;-70
2022/09/29 00:37:57;;;;;;;0.00;0.00;;;7.80;99.90;;;;;;5075289;28;20204;-69
2022/09/29 00:40:25;;;;;;;0.00;0.00;;;7.80;99.90;;;;;;5075049;28;20282;-69
2022/09/29 00:42:54;;;;;;;0.00;0.00;;;7.70;99.90;;;;;;5075094;28;20243;-69
2022/09/29 00:45:23;;;;;;;0.00;0.00;;;7.70;99.90;;;;;;5075081;28;20228;-69
2022/09/29 00:47:58;;;;;;;0.00;0.00;;;7.70;99.90;;;;;;5074906;28;20694;-69
2022/09/29 00:50:37;;;;;;;0.00;0.00;;;7.70;99.90;;;;;;5075041;28;20228;-69
2022/09/29 00:53:10;;;;;;;0.00;0.00;;;7.70;99.90;;;;;;5075315;28;20216;-69
2022/09/29 00:55:42;;;;;;;0.00;0.00;;;7.60;99.90;;;;;;5077964;28;20205;-69
2022/09/29 00:58:18;;;;;;;0.00;0.00;;;7.60;99.90;;;;;;5074944;28;20239;-69
2022/09/29 01:00:46;;;;;;;0.00;0.00;;;7.60;99.90;;;;;;5075209;28;20221;-69
2022/09/29 01:03:18;;;;;;;0.00;0.00;;;7.60;99.90;;;;;;5074961;28;20375;-67
2022/09/29 01:05:50;;;;;;;0.00;0.00;;;7.60;99.90;;;;;;5074531;28;20207;-69
2022/09/29 01:08:24;;;;;;;0.00;0.00;;;7.60;99.90;;;;;;5074489;28;20185;-69
2022/09/29 01:10:53;;;;;;;0.00;0.00;;;7.50;99.90;;;;;;5074444;28;20217;-69
2022/09/29 01:13:23;;;;;;;0.00;0.00;;;7.50;99.90;;;;;;5074688;28;20201;-68
2022/09/29 01:15:51;;;;;;;0.00;0.00;;;7.50;99.90;;;;;;5074616;28;20242;-69
2022/09/29 01:18:19;;;;;;;0.00;0.00;;;7.40;99.90;;;;;;5074040;28;20201;-68
2022/09/29 01:20:56;;;;;;;0.00;0.00;;;7.40;99.90;;;;;;5074448;28;20221;-69
2022/09/29 01:23:57;;;;;;;0.00;0.00;;;7.40;99.90;;;;;;5074096;28;20208;-69
2022/09/29 01:26:58;;;;;;;0.00;0.00;;;7.30;99.90;;;;;;5074226;28;20208;-69
2022/09/29 01:29:59;;;;;;;0.00;0.00;;;7.30;99.90;;;;;;5073464;28;20297;-70
2022/09/29 01:32:40;;;;;;;0.00;0.00;;;7.20;99.90;;;;;;5074257;28;20204;-68
2022/09/29 01:35:14;;;;;;;0.00;0.00;;;7.20;99.90;;;;;;5073970;28;20201;-69
2022/09/29 01:37:58;;;;;;;0.00;0.00;;;7.20;99.90;;;;;;5074125;28;20204;-71
2022/09/29 01:40:34;;;;;;;0.00;0.00;;;7.10;99.90;;;;;;5073957;28;20221;-70
2022/09/29 01:43:07;;;;;;;0.00;0.00;;;7.10;99.90;;;;;;5073982;28;20258;-69
2022/09/29 01:45:38;;;;;;;0.00;0.00;;;7.00;99.90;;;;;;5073420;28;20282;-71
2022/09/29 01:48:10;;;;;;;0.00;0.00;;;7.00;99.90;;;;;;5064700;28;20239;-70
2022/09/29 01:50:42;;;;;;;0.00;0.00;;;7.00;99.90;;;;;;5053812;28;20221;-71
2022/09/29 01:53:16;;;;;;;0.00;0.00;;;7.00;99.90;;;;;;5053800;28;20210;-70
2022/09/29 01:55:49;;;;;;;0.00;0.00;;;6.90;99.90;;;;;;5053501;28;20259;-70
2022/09/29 01:58:20;;;;;;;0.00;0.00;;;6.90;99.90;;;;;;5053615;28;20220;-71
2022/09/29 02:00:52;;;;;;;0.00;0.00;;;6.90;99.90;;;;;;5053562;28;20696;-69
2022/09/29 02:03:29;;;;;;;0.00;0.00;;;6.80;99.90;;;;;;5054093;28;20233;-74
2022/09/29 02:06:00;;;;;;;0.00;0.00;;;6.80;99.90;;;;;;5053636;28;20224;-70
2022/09/29 02:08:32;;;;;;;0.00;0.00;;;6.80;99.90;;;;;;5053201;28;20205;-69
2022/09/29 02:11:02;;;;;;;0.00;0.00;;;6.70;99.90;;;;;;5053068;28;20218;-71
2022/09/29 02:13:35;;;;;;;0.00;0.00;;;6.80;99.90;;;;;;5053554;28;20205;-69
2022/09/29 02:19:07;;;;;;;0.00;0.00;;;6.70;99.90;;;;;;5908946;22;20271;-86
2022/09/29 02:21:35;;;;;;;0.00;0.00;;;6.70;99.90;;;;;;5024061;28;20675;-88
2022/09/29 02:24:03;;;;;;;0.00;0.00;;;6.70;99.90;;;;;;5018611;28;20199;-88
2022/09/29 02:26:33;;;;;;;0.00;0.00;;;6.70;99.90;;;;;;5017306;28;20310;-88
2022/09/29 02:29:01;;;;;;;0.00;0.00;;;6.60;99.90;;;;;;5021265;28;20233;-88
2022/09/29 02:31:30;;;;;;;0.00;0.00;;;6.60;99.90;;;;;;5021093;28;20203;-89
2022/09/29 02:33:59;;;;;;;0.00;0.00;;;6.60;99.90;;;;;;5021892;28;20203;-88
2022/09/29 02:36:35;;;;;;;0.00;0.00;;;6.60;99.90;;;;;;5022622;28;20221;-87
2022/09/29 02:39:11;;;;;;;0.00;0.00;;;6.60;99.90;;;;;;5020944;28;20207;-88
2022/09/29 02:41:48;;;;;;;0.00;0.00;;;6.60;99.90;;;;;;5023002;28;20207;-88
2022/09/29 02:44:25;;;;;;;0.00;0.00;;;6.60;99.90;;;;;;5038171;28;20191;-87
2022/09/29 02:47:17;;;;;;;0.00;0.00;;;6.60;99.90;;;;;;5021535;28;20329;-87
2022/09/29 02:50:05;;;;;;;0.00;0.00;;;6.60;99.90;;;;;;5018559;28;20219;-88
2022/09/29 02:52:44;;;;;;;0.00;0.00;;;6.50;99.90;;;;;;5017994;28;20208;-88
2022/09/29 02:55:18;;;;;;;0.00;0.00;;;6.50;99.90;;;;;;5018019;28;20265;-88
2022/09/29 02:57:51;;;;;;;0.00;0.00;;;6.50;99.90;;;;;;5018551;28;20202;-90
2022/09/29 03:00:20;;;;;;;0.00;0.00;;;6.50;99.90;;;;;;5018075;28;20226;-88
2022/09/29 03:02:48;;;;;;;0.00;0.00;;;6.50;99.90;;;;;;5017531;28;20662;-88
2022/09/29 03:05:18;;;;;;;0.00;0.00;;;6.50;99.90;;;;;;5017319;28;20226;-87
2022/09/29 03:07:48;;;;;;;0.00;0.00;;;6.50;99.90;;;;;;5019659;28;20202;-88
2022/09/29 03:10:17;;;;;;;0.00;0.00;;;6.40;99.90;;;;;;5017660;28;20223;-88
2022/09/29 03:12:46;;;;;;;0.00;0.00;;;6.40;99.90;;;;;;5017791;28;20203;-88
2022/09/29 03:15:14;;;;;;;0.00;0.00;;;6.40;99.90;;;;;;5017803;28;20203;-88
2022/09/29 03:17:42;;;;;;;0.00;0.00;;;6.40;99.90;;;;;;5018197;28;20711;-88
2022/09/29 03:20:10;;;;;;;0.00;0.00;;;6.40;99.90;;;;;;5016913;28;20226;-88
2022/09/29 03:22:38;;;;;;;0.00;0.00;;;6.30;99.90;;;;;;5017364;28;20210;-88
2022/09/29 03:25:08;;;;;;;0.00;0.00;;;6.30;99.90;;;;;;5016861;28;20219;-88
2022/09/29 03:27:37;;;;;;;0.00;0.00;;;6.40;99.90;;;;;;5018090;28;20199;-88
2022/09/29 03:30:06;;;;;;;0.00;0.00;;;6.30;99.90;;;;;;5016914;28;20686;-88
2022/09/29 03:32:34;;;;;;;0.00;0.00;;;6.30;99.90;;;;;;5017340;28;20542;-88
2022/09/29 03:35:01;;;;;;;0.00;0.00;;;6.30;99.90;;;;;;5017148;28;20246;-89
2022/09/29 03:37:29;;;;;;;0.00;0.00;;;6.20;99.90;;;;;;5017926;28;20206;-88
2022/09/29 03:39:57;;;;;;;0.00;0.00;;;6.20;99.90;;;;;;5017380;28;20219;-88
2022/09/29 03:42:27;;;;;;;0.00;0.00;;;6.20;99.90;;;;;;5018097;28;20211;-88
2022/09/29 03:44:55;;;;;;;0.00;0.00;;;6.30;99.90;;;;;;5018770;28;20207;-89
2022/09/29 03:47:22;;;;;;;0.00;0.00;;;6.30;99.90;;;;;;5057802;28;20186;-85
2022/09/29 03:49:50;;;;;;;0.00;0.00;;;6.30;99.90;;;;;;5041443;28;20221;-87
2022/09/29 03:52:19;;;;;;;0.00;0.00;;;6.30;99.90;;;;;;5036203;28;20292;-88
2022/09/29 03:54:46;;;;;;;0.00;0.00;;;6.30;99.90;;;;;;5037345;28;20202;-88
2022/09/29 03:57:14;;;;;;;0.00;0.00;;;6.40;99.90;;;;;;5038347;28;20704;-88
2022/09/29 03:59:43;;;;;;;0.00;0.00;;;6.40;99.90;;;;;;5037471;28;20222;-88
2022/09/29 04:02:12;;;;;;;0.00;0.00;;;6.40;99.90;;;;;;5038954;28;20189;-89
2022/09/29 04:04:40;;;;;;;0.00;0.00;;;6.30;99.90;;;;;;5043301;28;20225;-90
2022/09/29 04:07:08;;;;;;;0.00;0.00;;;6.30;99.90;;;;;;5042645;28;20728;-89
2022/09/29 04:09:36;;;;;;;0.00;0.00;;;6.30;99.90;;;;;;5042325;28;20257;-88
2022/09/29 04:12:04;;;;;;;0.00;0.00;;;6.30;99.90;;;;;;5043952;28;20210;-87
2022/09/29 04:14:33;;;;;;;0.00;0.00;;;6.30;99.90;;;;;;5052078;28;20213;-88
2022/09/29 04:17:02;;;;;;;0.00;0.00;;;6.30;99.90;;;;;;5045585;28;20194;-88
2022/09/29 04:19:30;;;;;;;0.00;0.00;;;6.30;99.90;;;;;;5042915;28;20222;-88
2022/09/29 04:21:58;;;;;;;0.00;0.00;;;6.40;99.90;;;;;;5041561;28;20218;-88
2022/09/29 04:24:26;;;;;;;0.00;0.00;;;6.30;99.90;;;;;;5040987;28;20199;-87
2022/09/29 04:26:53;;;;;;;0.00;0.00;;;6.40;99.90;;;;;;5040313;28;20248;-87
2022/09/29 04:29:21;;;;;;;0.00;0.00;;;6.40;99.90;;;;;;5040797;28;20260;-87
2022/09/29 04:31:51;;;;;;;0.00;0.00;;;6.40;99.90;;;;;;5041088;28;20266;-88
2022/09/29 04:34:28;;;;;;;0.00;0.00;;;6.40;99.90;;;;;;5040469;28;20213;-86
2022/09/29 04:36:56;;;;;;;0.00;0.00;;;6.40;99.90;;;;;;5040110;28;20665;-87
2022/09/29 04:39:24;;;;;;;0.00;0.00;;;6.50;99.90;;;;;;5040292;28;20218;-87
2022/09/29 04:41:52;;;;;;;0.00;0.00;;;6.50;99.90;;;;;;5039587;28;20645;-87
2022/09/29 04:44:23;;;;;;;0.00;0.00;;;6.50;99.90;;;;;;5039474;28;20195;-88
2022/09/29 04:46:51;;;;;;;0.00;0.00;;;6.50;99.90;;;;;;5041274;28;20229;-88
2022/09/29 04:49:19;;;;;;;0.00;0.00;;;6.50;99.90;;;;;;5043754;28;20252;-86
2022/09/29 04:51:48;;;;;;;0.00;0.00;;;6.60;99.90;;;;;;5059963;28;20183;-85
2022/09/29 04:54:17;;;;;;;0.00;0.00;;;6.60;99.90;;;;;;5042834;28;20565;-89
2022/09/29 04:56:44;;;;;;;0.00;0.00;;;6.60;99.90;;;;;;5041533;28;20649;-88
2022/09/29 04:59:12;;;;;;;0.00;0.00;;;6.60;99.90;;;;;;5041220;28;20645;-88
2022/09/29 05:01:40;;;;;;;0.00;0.00;;;6.60;99.90;;;;;;5042969;28;20198;-89
2022/09/29 05:04:09;;;;;;;0.00;0.00;;;6.60;99.90;;;;;;5042314;28;20202;-88
2022/09/29 05:06:38;;;;;;;0.00;0.00;;;6.60;99.90;;;;;;5042101;28;20685;-87
2022/09/29 05:09:09;;;;;;;0.00;0.00;;;6.60;99.90;;;;;;5042136;28;20203;-88
2022/09/29 05:11:37;;;;;;;0.00;0.00;;;6.60;99.90;;;;;;5042448;28;20237;-87
2022/09/29 05:14:06;;;;;;;0.00;0.00;;;6.60;99.90;;;;;;5036070;28;20653;-89
2022/09/29 05:16:33;;;;;;;0.00;0.00;;;6.60;99.90;;;;;;5039065;28;20554;-88
2022/09/29 05:19:03;;;;;;;0.00;0.00;;;6.70;99.90;;;;;;5041639;28;20234;-89
2022/09/29 05:21:31;;;;;;;0.00;0.00;;;6.70;99.90;;;;;;5042050;28;20221;-87
2022/09/29 05:23:59;;;;;;;0.00;0.00;;;6.70;99.90;;;;;;5042988;28;20280;-87
2022/09/29 05:26:28;;;;;;;0.00;0.00;;;6.70;99.90;;;;;;5042645;28;20221;-87
2022/09/29 05:28:59;;;;;;;0.00;0.00;;;6.70;99.90;;;;;;5043198;28;20199;-88
2022/09/29 05:31:27;;;;;;;0.00;0.00;;;6.70;99.90;;;;;;5042472;28;20242;-88
2022/09/29 05:33:55;;;;;;;0.00;0.00;;;6.70;99.90;;;;;;5041185;28;20206;-88
2022/09/29 05:39:26;;;;;;;0.00;0.00;;;6.80;99.90;;;;;;5032757;28;20225;-88
2022/09/29 05:41:55;;;;;;;0.00;0.00;;;6.80;99.90;;;;;;5042960;28;20606;-88
2022/09/29 05:44:26;;;;;;;0.00;0.00;;;6.80;99.90;;;;;;5042897;28;20206;-88
2022/09/29 05:46:54;;;;;;;0.00;0.00;;;6.90;99.90;;;;;;5043718;28;20225;-88
2022/09/29 05:49:22;;;;;;;0.00;0.00;;;6.90;99.90;;;;;;5043350;28;20216;-88
2022/09/29 05:51:50;;;;;;;0.00;0.00;;;6.90;99.90;;;;;;5043694;28;20207;-89
2022/09/29 05:54:18;;;;;;;0.00;0.00;;;7.00;99.90;;;;;;5046578;28;20617;-89
2022/09/29 05:56:45;;;;;;;0.00;0.00;;;7.00;99.90;;;;;;5057012;28;20199;-88
2022/09/29 05:59:15;;;;;;;0.00;0.00;;;7.10;99.90;;;;;;5044011;28;20265;-88
2022/09/29 06:01:43;;;;;;;0.00;0.00;;;7.30;99.90;;;;;;5043545;28;20199;-90
2022/09/29 06:04:16;;;;;;;0.00;0.00;;;7.40;99.90;;;;;;5045291;28;20206;-89
2022/09/29 06:06:45;;;;;;;0.00;0.00;;;7.60;99.90;;;;;;5042756;28;20230;-90
2022/09/29 06:09:13;;;;;;;0.00;0.00;;;7.80;99.90;;;;;;5038966;28;20253;-89
2022/09/29 06:11:41;;;;;;;0.00;0.00;;;7.90;99.90;;;;;;5023558;28;20682;-89
2022/09/29 06:14:09;;;;;;;0.00;0.00;;;8.10;99.90;;;;;;5024034;28;20203;-91
2022/09/29 06:16:39;;;;;;;0.00;0.00;;;8.20;99.90;;;;;;5037347;28;20657;-89
2022/09/29 06:19:07;;;;;;;0.00;0.00;;;8.30;99.90;;;;;;5042070;28;20297;-87
2022/09/29 06:21:36;;;;;;;0.00;0.00;;;8.40;99.90;;;;;;5046556;28;20225;-87
2022/09/29 06:24:06;;;;;;;0.00;0.00;;;8.50;99.90;;;;;;5043091;28;20199;-88
2022/09/29 06:26:38;;;;;;;0.00;0.00;;;8.50;99.90;;;;;;5042473;28;20218;-87
2022/09/29 06:29:06;;;;;;;0.00;0.00;;;8.70;99.90;;;;;;5042680;28;20209;-89
2022/09/29 06:31:34;;;;;;;0.00;0.00;;;8.70;99.90;;;;;;5043138;28;20217;-88
2022/09/29 06:34:05;;;;;;;0.00;0.00;;;8.80;99.90;;;;;;5042565;28;20202;-88
2022/09/29 06:39:22;;;;;;;0.00;0.00;;;9.00;99.90;;;;;;5046756;28;20189;-87
2022/09/29 06:41:53;;;;;;;0.00;0.00;;;9.10;99.90;;;;;;5041785;28;20209;-88
2022/09/29 06:44:23;;;;;;;0.00;0.00;;;9.10;99.90;;;;;;5042471;28;20634;-89
2022/09/29 06:46:52;;;;;;;0.00;0.00;;;9.20;99.90;;;;;;5042012;28;20248;-91
2022/09/29 06:49:22;;;;;;;0.00;0.00;;;9.20;99.90;;;;;;5043068;28;20290;-90
2022/09/29 06:51:51;;;;;;;0.00;0.00;;;9.30;99.90;;;;;;5044504;28;20198;-90
2022/09/29 06:54:22;;;;;;;0.00;0.00;;;9.40;99.90;;;;;;5042998;28;20213;-90
2022/09/29 06:56:51;;;;;;;0.00;0.00;;;9.50;99.90;;;;;;5042785;28;20272;-91
2022/09/29 06:59:19;;;;;;;0.00;0.00;;;9.50;99.90;;;;;;5049555;28;20175;-91
2022/09/29 07:01:49;;;;;;;0.00;0.00;;;9.70;99.90;;;;;;5051565;28;20656;-90
2022/09/29 07:04:19;;;;;;;0.00;0.00;;;9.70;99.90;;;;;;5040874;28;20179;-92
2022/09/29 07:06:49;;;;;;;0.00;0.00;;;9.80;99.90;;;;;;5055232;28;20209;-90
2022/09/29 07:09:18;;;;;;;0.10;0.00;;;9.90;99.90;;;;;;5048013;28;20207;-90
2022/09/29 07:11:57;;;;;;;0.00;0.00;;;9.90;99.90;;;;;;5037648;28;20203;-88
2022/09/29 07:14:25;;;;;;;0.00;0.00;;;9.90;99.90;;;;;;5034338;28;20194;-90
2022/09/29 07:16:54;;;;;;;0.00;0.00;;;10.00;99.90;;;;;;5040469;28;20294;-89
2022/09/29 07:19:22;;;;;;;0.00;0.00;;;10.00;99.90;;;;;;5039829;28;20234;-89
2022/09/29 07:21:51;;;;;;;0.00;0.00;;;10.20;99.90;;;;;;5040514;28;20457;-88
2022/09/29 07:24:19;;;;;;;0.00;0.00;;;10.30;99.90;;;;;;5041533;28;20229;-88
2022/09/29 07:26:47;;;;;;;0.00;0.00;;;10.50;99.90;;;;;;5041821;28;20453;-87
2022/09/29 07:29:15;;;;;;;0.00;0.00;;;10.50;99.90;;;;;;5027452;28;20260;-88
2022/09/29 07:31:44;;;;;;;0.00;0.00;;;10.60;99.90;;;;;;5027022;28;20215;-87
2022/09/29 07:34:18;;;;;;;0.00;0.00;;;10.70;99.90;;;;;;5031589;28;20284;-88
2022/09/29 07:36:46;;;;;;;0.00;0.00;;;10.70;99.90;;;;;;5041512;28;20221;-87
2022/09/29 07:39:16;;;;;;;0.00;0.00;;;10.80;99.90;;;;;;5044488;28;20436;-88
2022/09/29 07:41:44;;;;;;;0.00;0.00;;;10.90;99.90;;;;;;5044530;28;20293;-88
2022/09/29 07:44:11;;;;;;;0.00;0.00;;;10.90;99.90;;;;;;5044861;28;20464;-87
2022/09/29 07:46:39;;;;;;;0.00;0.00;;;10.90;99.90;;;;;;5042717;28;20942;-89
2022/09/29 07:49:07;;;;;;;0.00;0.00;;;10.90;99.90;;;;;;5042051;28;20534;-87
2022/09/29 07:51:35;;;;;;;0.00;0.00;;;10.90;99.90;;;;;;5056836;28;20448;-88
2022/09/29 07:54:06;;;;;;;0.00;0.00;;;10.90;99.90;;;;;;5061584;28;20460;-87
2022/09/29 07:56:35;;;;;;;0.00;0.00;;;10.90;99.90;;;;;;5062807;28;20439;-87
2022/09/29 07:59:04;;;;;;;0.00;0.00;;;11.00;99.90;;;;;;5062076;28;20209;-88
2022/09/29 08:01:32;;;;;;;0.00;0.00;;;11.00;99.90;;;;;;5068294;28;20439;-87
2022/09/29 08:04:00;;;;;;;0.00;0.00;;;11.10;99.90;;;;;;5080886;28;20432;-88
2022/09/29 08:06:29;;;;;;;0.00;0.00;;;11.20;99.90;;;;;;5073909;28;20448;-87
2022/09/29 08:08:57;;;;;;;0.00;0.00;;;11.20;99.90;;;;;;5061679;28;20942;-88
2022/09/29 08:11:32;;;;;;;0.00;0.00;;;11.20;99.90;;;;;;5061258;28;20426;-87
2022/09/29 08:14:02;;;;;;;0.00;0.00;;;11.30;99.90;;;;;;5062052;28;20853;-87
2022/09/29 08:16:31;;;;;;;0.00;0.00;;;11.30;99.90;;;;;;5061788;28;20802;-88
2022/09/29 08:18:59;;;;;;;0.00;0.00;;;11.40;99.90;;;;;;5062165;28;20447;-88
2022/09/29 08:21:28;;;;;;;0.00;0.00;;;11.40;99.90;;;;;;5061299;28;21001;-87
2022/09/29 08:23:56;;;;;;;0.00;0.00;;;11.40;99.90;;;;;;5062728;28;20908;-87
2022/09/29 08:26:28;;;;;;;0.00;0.00;;;11.40;99.90;;;;;;5061249;28;20439;-86
2022/09/29 08:29:11;;;;;;;0.00;0.00;;;11.50;99.90;;;;;;5060405;28;20587;-90
2022/09/29 08:31:43;;;;;;;0.00;0.00;;;11.50;99.90;;;;;;5047127;28;20442;-88
2022/09/29 08:34:12;;;;;;;0.00;0.00;;;11.50;99.90;;;;;;5040816;28;20457;-88
2022/09/29 08:36:41;;;;;;;0.00;0.00;;;11.60;99.90;;;;;;5041285;28;20920;-87
2022/09/29 08:39:10;;;;;;;0.00;0.00;;;11.70;99.90;;;;;;5040999;28;20449;-88
2022/09/29 08:41:50;;;;;;;0.00;0.00;;;11.80;99.90;;;;;;5040658;28;20533;-87
2022/09/29 08:44:28;;;;;;;0.00;0.00;;;11.90;99.90;;;;;;5041018;28;20449;-87
2022/09/29 08:47:14;;;;;;;0.00;0.00;;;11.90;99.90;;;;;;5041680;28;20440;-87
2022/09/29 08:49:46;;;;;;;0.00;0.00;;;12.00;99.90;;;;;;5039856;28;20481;-88
2022/09/29 08:52:18;;;;;;;0.00;0.00;;;12.10;99.90;;;;;;5040864;28;20449;-88
2022/09/29 08:54:49;;;;;;;0.00;0.00;;;12.20;99.90;;;;;;5041289;28;20433;-88
2022/09/29 08:57:19;;;;;;;0.00;0.00;;;12.30;99.90;;;;;;5040498;28;20520;-87
2022/09/29 08:59:54;;;;;;;0.00;0.00;;;12.40;99.90;;;;;;5041498;28;20465;-88
2022/09/29 09:02:39;;;;;;;0.00;0.00;;;12.50;99.90;;;;;;5042372;28;20453;-87
2022/09/29 09:05:20;;;;;;;0.00;0.00;;;12.60;99.90;;;;;;5045058;28;20943;-88
2022/09/29 09:07:56;;;;;;;0.00;0.00;;;12.60;99.90;;;;;;5053023;28;20425;-86
2022/09/29 09:10:39;;;;;;;0.00;0.00;;;12.70;99.90;;;;;;5052477;28;20941;-88
2022/09/29 09:13:24;;;;;;;0.00;0.00;;;12.70;99.90;;;;;;5033684;28;20608;-87
2022/09/29 09:16:06;;;;;;;0.00;0.00;;;12.80;99.90;;;;;;5032041;28;20437;-88
2022/09/29 09:19:03;;;;;;;0.00;0.00;;;12.90;99.90;;;;;;5034620;28;20488;-87
2022/09/29 09:21:41;;;;;;;0.00;0.00;;;12.90;99.90;;;;;;5037187;28;20460;-87
2022/09/29 09:24:16;;;;;;;0.00;0.00;;;13.00;99.90;;;;;;5026099;28;20835;-88
2022/09/29 09:26:49;;;;;;;0.00;0.00;;;13.00;99.90;;;;;;5033259;28;20433;-87
2022/09/29 09:29:25;;;;;;;0.00;0.00;;;13.00;99.90;;;;;;5031628;28;20477;-88
2022/09/29 09:32:00;;;;;;;0.00;0.00;;;13.00;99.90;;;;;;5028431;28;20925;-87
2022/09/29 09:34:36;;;;;;;0.00;0.00;;;13.00;99.90;;;;;;5035500;28;20476;-87
2022/09/29 09:37:17;;;;;;;0.00;0.00;;;13.00;99.90;;;;;;5028327;28;20452;-88
2022/09/29 09:39:48;;;;;;;0.00;0.00;;;13.10;99.90;;;;;;5038425;28;20564;-88
2022/09/29 09:42:22;;;;;;;0.00;0.00;;;13.20;99.90;;;;;;5040927;28;20445;-89
2022/09/29 09:44:54;;;;;;;0.00;0.00;;;13.30;99.90;;;;;;5042929;28;20458;-91
2022/09/29 09:47:26;;;;;;;0.00;0.00;;;13.30;99.90;;;;;;5041731;28;20892;-87
2022/09/29 09:49:59;;;;;;;0.00;0.00;;;13.50;99.90;;;;;;5041678;28;21033;-87
2022/09/29 09:52:37;;;;;;;0.00;0.00;;;13.60;99.90;;;;;;5035022;28;20453;-89
2022/09/29 09:55:09;;;;;;;0.00;0.00;;;13.60;99.90;;;;;;5032940;28;20939;-88
2022/09/29 09:58:10;;;;;;;0.00;0.00;;;13.70;99.90;;;;;;5036872;28;20449;-88
2022/09/29 10:00:42;;;;;;;0.00;0.00;;;13.80;99.90;;;;;;5038472;28;20460;-88
2022/09/29 10:03:13;;;;;;;0.00;0.00;;;13.90;99.90;;;;;;5044526;28;20434;-88
2022/09/29 10:05:46;;;;;;;0.00;0.00;;;14.00;99.90;;;;;;5045165;28;20426;-88
2022/09/29 10:08:25;;;;;;;0.00;0.00;;;14.10;99.90;;;;;;5045449;28;20429;-89
2022/09/29 10:10:54;;;;;;;0.00;0.00;;;14.20;99.90;;;;;;5055061;28;20492;-88
2022/09/29 10:13:28;;;;;;;0.00;0.00;;;14.20;99.90;;;;;;5064123;28;20441;-86
2022/09/29 10:16:01;;;;;;;0.00;0.00;;;14.20;99.90;;;;;;5028629;28;20453;-89
2022/09/29 10:19:05;;;;;;;0.00;0.00;;;14.30;99.90;;;;;;5030124;28;20442;-89
2022/09/29 10:21:45;;;;;;;0.00;0.00;;;14.40;99.90;;;;;;5024676;28;20472;-89
2022/09/29 10:24:34;;;;;;;0.00;0.00;;;14.30;99.90;;;;;;5033076;28;20441;-89
2022/09/29 10:27:02;;;;;;;0.00;0.00;;;14.40;99.90;;;;;;5034074;28;20999;-89
2022/09/29 10:29:36;;;;;;;0.00;0.00;;;14.40;99.90;;;;;;5035319;28;20473;-88
2022/09/29 10:32:07;;;;;;;0.00;0.00;;;14.50;99.90;;;;;;5030798;28;20462;-88
2022/09/29 10:34:40;;;;;;;0.00;0.00;;;14.40;99.90;;;;;;5030215;28;20438;-89
2022/09/29 10:37:22;;;;;;;0.00;0.00;;;14.40;99.90;;;;;;5044746;28;20449;-89
2022/09/29 10:39:50;;;;;;;0.00;0.00;;;14.40;99.90;;;;;;5039640;28;20828;-88
2022/09/29 10:42:23;;;;;;;0.00;0.00;;;14.50;99.90;;;;;;5028802;28;20555;-90
2022/09/29 10:44:53;;;;;;;0.00;0.00;;;14.50;99.90;;;;;;5038933;28;20453;-90
2022/09/29 10:47:22;;;;;;;0.00;0.00;;;14.50;99.90;;;;;;5036789;28;20433;-89
2022/09/29 10:50:14;;;;;;;0.00;0.00;;;14.40;99.90;;;;;;5052532;28;20477;-91
2022/09/29 10:52:44;;;;;;;0.00;0.00;;;14.40;99.90;;;;;;5041661;28;20532;-89
2022/09/29 10:55:18;;;;;;;0.00;0.00;;;14.30;99.90;;;;;;5033294;28;20450;-89
2022/09/29 10:57:47;;;;;;;0.00;0.00;;;14.10;99.90;;;;;;5033736;28;20441;-89
2022/09/29 11:00:33;;;;;;;0.00;0.00;;;14.10;99.90;;;;;;5028566;28;20496;-92
2022/09/29 11:03:17;;;;;;;0.00;0.00;;;14.00;99.90;;;;;;5026137;28;20499;-91
2022/09/29 11:05:53;;;;;;;0.00;0.00;;;14.00;99.90;;;;;;5027665;28;20446;-92
2022/09/29 11:08:26;;;;;;;0.00;0.00;;;14.10;99.90;;;;;;5029109;28;20436;-93
2022/09/29 11:11:05;;;;;;;0.00;0.00;;;14.10;99.90;;;;;;5038111;28;20481;-94
2022/09/29 11:13:39;;;;;;;0.00;0.00;;;14.10;99.90;;;;;;5042062;28;20418;-93
2022/09/29 11:16:15;;;;;;;0.00;0.00;;;14.10;99.90;;;;;;5041766;28;20505;-92
2022/09/29 11:18:48;;;;;;;0.00;0.00;;;14.10;99.90;;;;;;5042303;28;20505;-95
2022/09/29 11:22:06;;;;;;;0.00;0.00;;;14.00;99.90;;;;;;5040873;28;20477;-94
2022/09/29 11:24:52;;;;;;;0.00;0.00;;;14.00;99.90;;;;;;5040614;28;20509;-94
2022/09/29 11:27:32;;;;;;;0.00;0.00;;;13.90;99.90;;;;;;5041501;28;20426;-94
2022/09/29 11:30:21;;;;;;;0.00;0.00;;;13.80;99.90;;;;;;5039999;28;20563;-95
2022/09/29 11:33:05;;;;;;;0.00;0.00;;;13.80;99.90;;;;;;5037685;28;20441;-93
2022/09/29 11:35:59;;;;;;;0.00;0.00;;;13.80;99.90;;;;;;5040205;28;20458;-92
2022/09/29 11:38:52;;;;;;;0.00;0.00;;;13.80;99.90;;;;;;5041436;28;20441;-94
2022/09/29 11:41:49;;;;;;;0.00;0.00;;;13.90;99.90;;;;;;5040631;28;20549;-92
2022/09/29 11:44:41;;;;;;;0.00;0.00;;;14.00;99.90;;;;;;5034950;28;20430;-95
2022/09/29 11:50:26;;;;;;;0.00;0.00;;;14.20;99.90;;;;;;5053563;28;20995;-72
2022/09/29 11:53:18;;;;;;;0.00;0.00;;;14.20;99.90;;;;;;5056177;28;20923;-72
2022/09/29 11:56:00;;;;;;;0.00;0.00;;;14.30;99.90;;;;;;5056035;28;20436;-71
2022/09/29 11:58:46;;;;;;;0.00;0.00;;;14.20;99.90;;;;;;5055879;28;20440;-73
2022/09/29 12:01:34;;;;;;;0.00;0.00;;;14.10;99.90;;;;;;5047277;28;20865;-72
2022/09/29 12:04:17;;;;;;;0.00;0.00;;;14.10;99.90;;;;;;5049788;28;20562;-72
2022/09/29 12:06:53;;;;;;;0.00;0.00;;;14.10;99.90;;;;;;5046497;28;20448;-72
2022/09/29 12:09:47;;;;;;;0.00;0.00;;;14.00;99.90;;;;;;5038567;28;20502;-73
2022/09/29 12:12:23;;;;;;;0.00;0.00;;;14.00;99.90;;;;;;5041039;28;20451;-73
2022/09/29 12:15:16;;;;;;;0.00;0.00;;;14.10;99.90;;;;;;5055876;28;20474;-72
2022/09/29 12:17:48;;;;;;;0.00;0.00;;;14.10;99.90;;;;;;5055610;28;20444;-72
2022/09/29 12:20:20;;;;;;;0.00;0.00;;;14.10;99.90;;;;;;5055302;28;20494;-72
2022/09/29 12:22:50;;;;;;;0.00;0.00;;;14.10;99.90;;;;;;5044225;28;20843;-72
2022/09/29 12:25:23;;;;;;;0.00;0.00;;;14.10;99.90;;;;;;5035557;28;20437;-72
2022/09/29 12:27:56;;;;;;;0.00;0.00;;;14.20;99.90;;;;;;5050684;28;20471;-73
2022/09/29 12:30:28;;;;;;;0.00;0.00;;;14.20;99.90;;;;;;5055447;28;20876;-73
2022/09/29 12:33:02;;;;;;;0.00;0.00;;;14.20;99.90;;;;;;5054752;28;20997;-73
2022/09/29 12:35:35;;;;;;;0.00;0.00;;;14.30;99.90;;;;;;5054671;28;20533;-72
2022/09/29 12:38:15;;;;;;;0.00;0.00;;;14.30;99.90;;;;;;5044638;28;20909;-72
2022/09/29 12:40:47;;;;;;;0.00;0.00;;;14.20;99.90;;;;;;5035249;28;20518;-72
2022/09/29 12:43:23;;;;;;;0.00;0.00;;;14.20;99.90;;;;;;5054987;28;20429;-72
2022/09/29 12:45:56;;;;;;;0.00;0.00;;;14.20;99.90;;;;;;5055120;28;20475;-73
2022/09/29 12:48:42;;;;;;;0.00;0.00;;;14.20;99.90;;;;;;5054054;28;20797;-72
2022/09/29 12:51:17;;;;;;;0.00;0.00;;;14.20;99.90;;;;;;5054896;28;20480;-73
2022/09/29 12:53:56;;;;;;;0.00;0.00;;;14.30;99.90;;;;;;5054438;28;20439;-72
2022/09/29 12:56:29;;;;;;;0.00;0.00;;;14.30;99.90;;;;;;5035153;28;20437;-73
2022/09/29 12:59:07;;;;;;;0.00;0.00;;;14.40;99.90;;;;;;5034770;28;20914;-72
2022/09/29 13:01:37;;;;;;;0.00;0.00;;;14.40;99.90;;;;;;5035052;28;20440;-73
2022/09/29 13:04:36;;;;;;;0.00;0.00;;;14.40;99.90;;;;;;5034831;28;20448;-72
2022/09/29 13:07:53;;;;;;;0.00;0.00;;;14.30;99.90;;;;;;5034391;28;20465;-72
2022/09/29 13:10:44;;;;;;;0.00;0.00;;;14.30;99.90;;;;;;5034513;28;20480;-72
2022/09/29 13:13:54;;;;;;;0.00;0.00;;;14.20;99.90;;;;;;5034387;28;20479;-72
2022/09/29 13:16:37;;;;;;;0.00;0.00;;;14.20;99.90;;;;;;5034737;28;20436;-72
2022/09/29 13:19:34;;;;;;;0.00;0.00;;;14.20;99.90;;;;;;5045086;28;20448;-72
2022/09/29 13:22:56;;;;;;;0.00;0.00;;;14.10;99.90;;;;;;5054553;28;20440;-72
2022/09/29 13:25:32;;;;;;;0.00;0.00;;;14.10;99.90;;;;;;5054203;28;20464;-72
2022/09/29 13:28:00;;;;;;;0.00;0.00;;;14.00;99.90;;;;;;5053916;28;20860;-72
2022/09/29 13:30:30;;;;;;;0.00;0.00;;;13.90;99.90;;;;;;5036851;28;20591;-78
2022/09/29 13:33:08;;;;;;;0.00;0.00;;;13.80;99.90;;;;;;5035510;28;20540;-78
2022/09/29 13:35:39;;;;;;;0.00;0.00;;;13.70;99.90;;;;;;5034246;28;20472;-75
2022/09/29 13:38:13;;;;;;;0.00;0.00;;;13.70;99.90;;;;;;5034833;28;20512;-75